Time;durP1;ratioP1;P1;durP2;ratioP2;P2;SDS_P1;SDS_P2;PMS_P1;PMS_P2;Temp;Humidity;BMP_temperature;BMP_pressure;BME280_temperature;BME280_humidity;BME280_pressure;Samples;Min_cycle;Max_cycle;Signal;HPM_P1;HPM_P2
2022/09/22 00:00:28;;;;;;;;;;;;;;;6.93;75.00;97587.47;30001;983;1875;-72
2022/09/22 00:01:01;;;;;;;;;;;;;;;6.92;74.80;97585.87;30001;983;1880;-73
2022/09/22 00:01:35;;;;;;;;;;;;;;;6.92;75.08;97582.34;30001;983;1875;-73
2022/09/22 00:02:06;;;;;;;;;;;;;;;6.92;75.27;97585.06;30001;983;1867;-72
2022/09/22 00:02:37;;;;;;;;;;;;;;;6.91;74.96;97578.03;30001;983;1867;-72
2022/09/22 00:03:08;;;;;;;;;;;;;;;6.89;75.18;97586.38;30001;983;1880;-72
2022/09/22 00:03:44;;;;;;;;;;;;;;;6.88;75.54;97573.94;30001;983;1876;-73
2022/09/22 00:04:15;;;;;;;;;;;;;;;6.89;75.48;97585.56;30001;983;1880;-72
2022/09/22 00:04:46;;;;;;;;;;;;;;;6.88;75.58;97578.53;30001;983;1876;-72
2022/09/22 00:05:17;;;;;;;;;;;;;;;6.88;75.33;97578.53;30001;982;1880;-72
2022/09/22 00:05:48;;;;;;;;;;;;;;;6.87;75.43;97577.72;30001;982;1876;-72
2022/09/22 00:06:33;;;;;;;;;;;;;;;6.88;75.43;97578.53;30001;982;1880;-72
2022/09/22 00:07:03;;;;;;;;;;;;;;;6.87;75.43;97572.31;30001;982;1863;-72
2022/09/22 00:07:34;;;;;;;;;;;;;;;6.86;75.29;97569.87;30001;983;1871;-72
2022/09/22 00:08:07;;;;;;;;;;;;;;;6.86;75.25;97570.69;30001;983;1875;-73
2022/09/22 00:08:39;;;;;;;;;;;;;;;6.87;75.12;97568.81;30001;983;1880;-72
2022/09/22 00:09:11;;;;;;;;;;;;;;;6.87;75.61;97568.81;30001;983;1875;-73
2022/09/22 00:09:42;;;;;;;;;;;;;;;6.88;75.02;97573.12;30001;983;1880;-72
2022/09/22 00:10:14;;;;;;;;;;;;;;;6.87;75.36;97560.72;30001;983;1876;-72
2022/09/22 00:10:44;;;;;;;;;;;;;;;6.87;75.08;97566.12;30001;983;1880;-73
2022/09/22 00:11:17;;;;;;;;;;;;;;;6.87;75.48;97568.81;30001;983;1876;-72
2022/09/22 00:11:49;;;;;;;;;;;;;;;6.88;75.47;97567.75;30001;982;1867;-73
2022/09/22 00:12:21;;;;;;;;;;;;;;;6.88;74.96;97565.03;30001;982;1867;-73
2022/09/22 00:12:54;;;;;;;;;;;;;;;6.87;75.23;97566.12;30001;982;1867;-72
2022/09/22 00:13:25;;;;;;;;;;;;;;;6.87;75.03;97564.22;30001;982;1867;-72
2022/09/22 00:13:58;;;;;;;;;;;;;;;6.87;74.76;97564.22;30001;982;1880;-72
2022/09/22 00:14:29;;;;;;;;;;;;;;;6.86;75.56;97559.91;30001;983;1875;-72
2022/09/22 00:15:00;;;;;;;;;;;;;;;6.87;75.48;97566.12;30001;983;1880;-58
2022/09/22 00:15:31;;;;;;;;;;;;;;;6.87;75.39;97563.41;30001;983;1875;-73
2022/09/22 00:16:02;;;;;;;;;;;;;;;6.88;75.13;97567.75;30001;983;1880;-72
2022/09/22 00:16:36;;;;;;;;;;;;;;;6.86;74.96;97561.78;30001;983;1875;-73
2022/09/22 00:17:07;;;;;;;;;;;;;;;6.86;75.52;97564.47;30001;983;1867;-73
2022/09/22 00:17:38;;;;;;;;;;;;;;;6.85;75.60;97562.84;30001;983;1867;-72
2022/09/22 00:18:08;;;;;;;;;;;;;;;6.85;74.98;97562.84;30001;983;1880;-73
2022/09/22 00:18:39;;;;;;;;;;;;;;;6.84;75.57;97566.59;30001;983;1876;-72
2022/09/22 00:19:17;;;;;;;;;;;;;;;6.83;75.23;97562.28;30001;982;1880;-71
2022/09/22 00:19:48;;;;;;;;;;;;;;;6.84;75.36;97561.22;30001;982;1876;-73
2022/09/22 00:20:19;;;;;;;;;;;;;;;6.83;75.40;97551.50;30001;982;1880;-72
2022/09/22 00:20:50;;;;;;;;;;;;;;;6.83;75.45;97556.88;30001;982;1876;-72
2022/09/22 00:21:22;;;;;;;;;;;;;;;6.82;75.20;97557.97;30001;982;1880;-71
2022/09/22 00:21:53;;;;;;;;;;;;;;;6.81;75.47;97557.13;30001;983;1862;-72
2022/09/22 00:22:27;;;;;;;;;;;;;;;6.79;75.51;97559.28;30001;983;1871;-72
2022/09/22 00:22:58;;;;;;;;;;;;;;;6.77;75.60;97560.59;30001;983;1875;-73
2022/09/22 00:23:30;;;;;;;;;;;;;;;6.75;75.77;97552.75;30001;983;1867;-71
2022/09/22 00:24:02;;;;;;;;;;;;;;;6.73;76.00;97561.09;30001;983;1867;-72
2022/09/22 00:24:34;;;;;;;;;;;;;;;6.72;75.73;97554.06;30001;983;1880;-72
2022/09/22 00:25:06;;;;;;;;;;;;;;;6.71;76.06;97551.62;30001;983;1876;-72
2022/09/22 00:25:40;;;;;;;;;;;;;;;6.68;76.08;97558.34;30001;983;1880;-73
2022/09/22 00:26:14;;;;;;;;;;;;;;;6.68;76.12;97557.50;30001;983;1876;-72
2022/09/22 00:26:45;;;;;;;;;;;;;;;6.66;76.38;97552.38;30001;982;1880;-73
2022/09/22 00:27:16;;;;;;;;;;;;;;;6.65;77.06;97553.44;30001;982;1876;-72
2022/09/22 00:27:47;;;;;;;;;;;;;;;6.63;76.57;97555.56;30001;985;1871;-58
2022/09/22 00:28:20;;;;;;;;;;;;;;;6.62;76.80;97553.94;30001;982;1880;-72
2022/09/22 00:28:51;;;;;;;;;;;;;;;6.63;76.61;97550.19;30001;982;1863;-72
2022/09/22 00:29:27;;;;;;;;;;;;;;;6.61;76.91;97557.69;30001;983;1871;-58
2022/09/22 00:29:58;;;;;;;;;;;;;;;6.60;76.74;97561.47;30001;983;1875;-72
2022/09/22 00:30:30;;;;;;;;;;;;;;;6.60;76.64;97556.06;30001;983;1880;-73
2022/09/22 00:31:07;;;;;;;;;;;;;;;6.60;76.75;97547.97;30001;983;1875;-72
2022/09/22 00:31:39;;;;;;;;;;;;;;;6.60;77.08;97558.75;30001;983;1880;-73
2022/09/22 00:32:10;;;;;;;;;;;;;;;6.61;76.95;97557.69;30001;983;1876;-72
2022/09/22 00:32:41;;;;;;;;;;;;;;;6.61;77.03;97552.31;30001;983;1880;-73
2022/09/22 00:33:12;;;;;;;;;;;;;;;6.62;76.83;97553.13;30001;983;1876;-73
2022/09/22 00:33:45;;;;;;;;;;;;;;;6.61;76.72;97546.91;30001;983;1867;-72
2022/09/22 00:34:17;;;;;;;;;;;;;;;6.62;76.60;97556.63;30001;982;1867;-72
2022/09/22 00:34:49;;;;;;;;;;;;;;;6.60;76.77;97550.69;30001;982;1880;-72
2022/09/22 00:35:20;;;;;;;;;;;;;;;6.60;76.27;97550.69;30001;982;1876;-72
2022/09/22 00:35:58;;;;;;;;;;;;;;;6.59;76.84;97556.31;30001;982;1814;-73
2022/09/22 00:36:30;;;;;;;;;;;;;;;6.59;76.78;97549.03;30001;982;1876;-73
2022/09/22 00:37:01;;;;;;;;;;;;;;;6.57;76.65;97548.50;30001;983;1867;-73
2022/09/22 00:37:34;;;;;;;;;;;;;;;6.56;77.10;97549.56;30001;983;1853;-74
2022/09/22 00:38:06;;;;;;;;;;;;;;;6.56;77.12;97549.56;30001;983;1880;-73
2022/09/22 00:38:38;;;;;;;;;;;;;;;6.56;76.71;97549.56;30001;983;1875;-73
2022/09/22 00:39:09;;;;;;;;;;;;;;;6.55;76.63;97550.62;30001;983;1867;-72
2022/09/22 00:39:40;;;;;;;;;;;;;;;6.54;76.42;97549.00;30001;983;1867;-72
2022/09/22 00:40:11;;;;;;;;;;;;;;;6.54;76.87;97551.69;30001;983;1880;-71
2022/09/22 00:40:42;;;;;;;;;;;;;;;6.55;76.86;97552.50;30001;983;1863;-71
2022/09/22 00:41:15;;;;;;;;;;;;;;;6.53;76.85;97554.66;30001;983;1871;-72
2022/09/22 00:41:47;;;;;;;;;;;;;;;6.52;77.04;97548.44;30001;983;1876;-72
2022/09/22 00:42:19;;;;;;;;;;;;;;;6.52;76.69;97551.12;30001;969;1898;-72
2022/09/22 00:42:50;;;;;;;;;;;;;;;6.51;76.79;97541.41;30001;982;1876;-72
2022/09/22 00:43:24;;;;;;;;;;;;;;;6.52;76.82;97544.94;30001;982;1880;-71
2022/09/22 00:44:14;;;;;;;;;;;;;;;6.52;76.66;97543.03;30001;982;1876;-72
2022/09/22 00:44:45;;;;;;;;;;;;;;;6.53;76.69;97541.16;30001;983;1871;-72
2022/09/22 00:45:18;;;;;;;;;;;;;;;6.53;77.11;97541.16;30001;983;1862;-71
2022/09/22 00:45:53;;;;;;;;;;;;;;;6.52;77.01;97548.44;30001;983;1871;-72
2022/09/22 00:46:25;;;;;;;;;;;;;;;6.53;76.65;97541.16;30001;983;1875;-72
2022/09/22 00:47:19;;;;;;;;;;;;;;;6.52;76.53;97540.34;30001;983;1867;-72
2022/09/22 00:47:50;;;;;;;;;;;;;;;6.51;76.33;97536.03;30001;983;1863;-72
2022/09/22 00:48:23;;;;;;;;;;;;;;;6.52;76.78;97537.66;30001;983;1880;-72
2022/09/22 00:48:57;;;;;;;;;;;;;;;6.52;76.69;97537.66;30001;982;1876;-72
2022/09/22 00:49:56;;;;;;;;;;;;;;;6.52;76.79;97537.66;30001;982;1880;-72
2022/09/22 00:50:28;;;;;;;;;;;;;;;6.53;76.39;97533.91;30001;982;1871;-72
2022/09/22 00:51:00;;;;;;;;;;;;;;;6.53;75.92;97533.91;30001;979;1891;-72
2022/09/22 00:51:33;;;;;;;;;;;;;;;6.53;76.12;97533.91;30001;982;1876;-72
2022/09/22 00:52:05;;;;;;;;;;;;;;;6.53;76.20;97536.59;30001;983;1867;-72
2022/09/22 00:52:46;;;;;;;;;;;;;;;6.54;76.44;97535.53;30001;983;1866;-72
2022/09/22 00:53:19;;;;;;;;;;;;;;;6.55;76.43;97528.25;30001;983;1879;-71
2022/09/22 00:53:50;;;;;;;;;;;;;;;6.54;76.07;97535.53;30001;983;1783;-72
2022/09/22 00:54:21;;;;;;;;;;;;;;;6.54;76.51;97532.84;30001;983;1880;-71
2022/09/22 00:54:53;;;;;;;;;;;;;;;6.54;76.27;97524.75;30001;983;1862;-72
2022/09/22 00:55:29;;;;;;;;;;;;;;;6.54;76.22;97524.75;30001;983;1871;-72
2022/09/22 00:56:05;;;;;;;;;;;;;;;6.54;75.96;97524.75;30001;983;1875;-72
2022/09/22 00:56:44;;;;;;;;;;;;;;;6.56;76.06;97527.19;30001;982;1880;-72
2022/09/22 00:57:21;;;;;;;;;;;;;;;6.56;76.04;97522.59;30001;982;1876;-72
2022/09/22 00:57:52;;;;;;;;;;;;;;;6.57;76.25;97524.25;30001;982;1867;-72
2022/09/22 00:58:32;;;;;;;;;;;;;;;6.59;76.06;97530.16;30001;982;1867;-72
2022/09/22 00:59:06;;;;;;;;;;;;;;;6.63;75.42;97523.22;30001;982;1880;-73
2022/09/22 00:59:38;;;;;;;;;;;;;;;6.63;75.55;97525.91;30001;983;1875;-72
2022/09/22 01:00:10;;;;;;;;;;;;;;;6.65;75.65;97523.78;30001;983;1866;-73
2022/09/22 01:00:41;;;;;;;;;;;;;;;6.65;75.56;97523.78;30001;983;1866;-72
2022/09/22 01:01:14;;;;;;;;;;;;;;;6.66;75.28;97519.19;30001;983;1880;-72
2022/09/22 01:01:45;;;;;;;;;;;;;;;6.65;75.55;97526.47;30001;983;1875;-72
2022/09/22 01:02:16;;;;;;;;;;;;;;;6.66;75.28;97522.72;30001;983;1880;-74
2022/09/22 01:02:52;;;;;;;;;;;;;;;6.68;75.32;97525.97;30001;983;1875;-72
2022/09/22 01:03:25;;;;;;;;;;;;;;;6.70;75.17;97526.53;30001;983;1880;-71
2022/09/22 01:03:56;;;;;;;;;;;;;;;6.72;74.83;97521.69;30001;982;1876;-71
2022/09/22 01:04:27;;;;;;;;;;;;;;;6.73;74.69;97523.34;30001;982;1880;-71
2022/09/22 01:05:02;;;;;;;;;;;;;;;6.74;74.31;97521.44;30001;982;1863;-71
2022/09/22 01:05:35;;;;;;;;;;;;;;;6.77;74.47;97518.25;30001;982;1871;-71
2022/09/22 01:06:09;;;;;;;;;;;;;;;6.80;74.14;97528.53;30001;982;1876;-71
2022/09/22 01:06:40;;;;;;;;;;;;;;;6.83;74.10;97527.22;30001;982;1880;-72
2022/09/22 01:07:11;;;;;;;;;;;;;;;6.86;74.14;97524.00;30001;986;1858;-72
2022/09/22 01:07:43;;;;;;;;;;;;;;;6.88;73.60;97528.09;30001;983;1875;-73
2022/09/22 01:08:15;;;;;;;;;;;;;;;6.91;73.31;97524.06;30001;983;1879;-72
2022/09/22 01:08:47;;;;;;;;;;;;;;;6.91;73.55;97532.97;30001;983;1871;-58
2022/09/22 01:09:18;;;;;;;;;;;;;;;6.93;73.20;97532.72;30001;983;1871;-72
2022/09/22 01:09:49;;;;;;;;;;;;;;;6.93;73.34;97530.03;30001;983;1884;-73
2022/09/22 01:10:21;;;;;;;;;;;;;;;6.94;73.47;97537.03;30001;983;1880;-72
2022/09/22 01:10:54;;;;;;;;;;;;;;;6.94;73.81;97531.63;30001;983;1884;-73
2022/09/22 01:11:25;;;;;;;;;;;;;;;6.93;73.91;97532.72;30001;982;1880;-73
2022/09/22 01:11:57;;;;;;;;;;;;;;;6.91;73.57;97524.87;30001;982;1884;-74
2022/09/22 01:12:29;;;;;;;;;;;;;;;6.92;74.10;97531.09;30001;982;1867;-72
2022/09/22 01:13:19;;;;;;;;;;;;;;;6.92;73.93;97531.09;30001;982;1876;-73
2022/09/22 01:14:15;;;;;;;;;;;;;;;6.91;73.80;97530.28;30001;982;1872;-73
2022/09/22 01:15:12;;;;;;;;;;;;;;;6.90;74.06;97538.63;30001;983;1879;-72
2022/09/22 01:15:53;;;;;;;;;;;;;;;6.88;74.21;97530.78;30001;983;1875;-73
2022/09/22 01:16:41;;;;;;;;;;;;;;;6.87;74.30;97531.03;30001;983;1884;-73
2022/09/22 01:17:34;;;;;;;;;;;;;;;6.83;74.07;97538.00;30001;983;1880;-72
2022/09/22 01:18:25;;;;;;;;;;;;;;;6.81;74.82;97538.25;30001;983;1871;-72
2022/09/22 01:19:14;;;;;;;;;;;;;;;6.78;74.74;97535.25;30001;982;1871;-59
2022/09/22 01:20:05;;;;;;;;;;;;;;;6.72;74.94;97543.28;30001;982;1876;-72
2022/09/22 01:20:53;;;;;;;;;;;;;;;6.72;74.89;97537.88;30001;982;1876;-59
2022/09/22 01:21:38;;;;;;;;;;;;;;;6.69;75.07;97538.38;30001;983;1871;-72
2022/09/22 01:22:32;;;;;;;;;;;;;;;6.66;75.41;97535.38;30001;983;1871;-72
2022/09/22 01:23:31;;;;;;;;;;;;;;;6.65;75.67;97539.13;30001;983;1871;-73
2022/09/22 01:24:20;;;;;;;;;;;;;;;6.61;75.50;97533.44;30001;983;1866;-72
2022/09/22 01:25:09;;;;;;;;;;;;;;;6.62;75.47;97540.44;30001;983;1862;-73
2022/09/22 01:26:05;;;;;;;;;;;;;;;6.62;75.67;97542.34;30001;983;1853;-72
2022/09/22 01:26:54;;;;;;;;;;;;;;;6.59;75.92;97540.94;30001;982;1884;-73
2022/09/22 01:28:03;;;;;;;;;;;;;;;6.58;76.06;97542.06;30001;982;1872;-72
2022/09/22 01:28:54;;;;;;;;;;;;;;;6.57;76.06;97535.03;30001;982;1880;-73
2022/09/22 01:29:43;;;;;;;;;;;;;;;6.55;75.98;97537.16;30001;983;1875;-72
2022/09/22 01:30:40;;;;;;;;;;;;;;;6.53;76.22;97533.91;30001;983;1875;-72
2022/09/22 01:31:21;;;;;;;;;;;;;;;6.51;75.94;97533.34;30001;983;1862;-73
2022/09/22 01:32:04;;;;;;;;;;;;;;;6.50;76.46;97529.00;30001;983;1875;-73
2022/09/22 01:32:48;;;;;;;;;;;;;;;6.51;76.22;97532.50;30001;983;1880;-73
2022/09/22 01:33:35;;;;;;;;;;;;;;;6.48;76.03;97531.13;30001;983;1884;-73
2022/09/22 01:34:35;;;;;;;;;;;;;;;6.46;76.51;97532.44;30001;982;1867;-73
2022/09/22 01:35:10;;;;;;;;;;;;;;;6.46;76.72;97533.25;30001;982;1871;-73
2022/09/22 01:36:10;;;;;;;;;;;;;;;6.47;76.37;97531.37;30001;982;1880;-72
2022/09/22 01:36:53;;;;;;;;;;;;;;;6.44;76.47;97530.00;30001;983;1866;-73
2022/09/22 01:37:50;;;;;;;;;;;;;;;6.43;76.54;97532.94;30001;983;1871;-74
2022/09/22 01:38:32;;;;;;;;;;;;;;;6.41;77.08;97527.81;30001;983;1884;-72
2022/09/22 01:39:11;;;;;;;;;;;;;;;6.40;77.78;97531.56;30001;983;1866;-72
2022/09/22 01:39:44;;;;;;;;;;;;;;;6.37;77.79;97524.78;30001;983;1875;-73
2022/09/22 01:40:19;;;;;;;;;;;;;;;6.35;77.92;97529.63;30001;983;1880;-73
2022/09/22 01:41:21;;;;;;;;;;;;;;;6.32;78.16;97526.59;30001;983;1871;-59
2022/09/22 01:41:57;;;;;;;;;;;;;;;6.28;78.90;97528.16;30001;982;1867;-73
2022/09/22 01:42:37;;;;;;;;;;;;;;;6.27;79.15;97529.22;30001;982;1884;-59
2022/09/22 01:43:26;;;;;;;;;;;;;;;6.24;78.92;97525.16;30001;982;1881;-58
2022/09/22 01:44:00;;;;;;;;;;;;;;;6.23;78.36;97520.84;30001;983;1875;-60
2022/09/22 01:44:33;;;;;;;;;;;;;;;6.21;78.79;97527.56;30001;983;1866;-61
2022/09/22 01:45:16;;;;;;;;;;;;;;;6.20;78.69;97523.22;30001;983;1875;-60
2022/09/22 01:45:47;;;;;;;;;;;;;;;6.21;78.60;97532.94;30001;983;1880;-59
2022/09/22 01:46:25;;;;;;;;;;;;;;;6.21;78.67;97519.47;30001;983;1884;-73
2022/09/22 01:47:14;;;;;;;;;;;;;;;6.19;78.42;97521.59;30001;983;1880;-59
2022/09/22 01:47:48;;;;;;;;;;;;;;;6.15;79.27;97515.06;30001;965;1893;-59
2022/09/22 01:48:22;;;;;;;;;;;;;;;6.10;79.13;97518.50;30001;983;1880;-59
2022/09/22 01:48:56;;;;;;;;;;;;;;;6.07;79.59;97528.97;30001;983;1884;-60
2022/09/22 01:49:29;;;;;;;;;;;;;;;6.04;79.07;97527.56;30001;986;1871;-60
2022/09/22 01:50:02;;;;;;;;;;;;;;;6.03;79.77;97518.69;30001;982;1872;-60
2022/09/22 01:50:39;;;;;;;;;;;;;;;6.04;79.27;97520.31;30001;982;1871;-59
2022/09/22 01:51:13;;;;;;;;;;;;;;;6.03;79.50;97521.38;30001;982;1885;-59
2022/09/22 01:51:48;;;;;;;;;;;;;;;6.04;79.36;97520.31;30001;983;1879;-60
2022/09/22 01:52:21;;;;;;;;;;;;;;;6.03;79.47;97517.88;30001;983;1884;-60
2022/09/22 01:52:54;;;;;;;;;;;;;;;6.01;79.70;97531.59;30001;983;1879;-59
2022/09/22 01:53:29;;;;;;;;;;;;;;;5.99;79.70;97528.31;30001;983;1884;-59
2022/09/22 01:54:04;;;;;;;;;;;;;;;5.97;80.43;97527.75;30001;983;1880;-60
2022/09/22 01:54:39;;;;;;;;;;;;;;;5.95;80.39;97532.56;30001;983;1884;-59
2022/09/22 01:55:22;;;;;;;;;;;;;;;5.92;81.04;97532.25;30001;983;1867;-60
2022/09/22 01:55:56;;;;;;;;;;;;;;;5.89;81.27;97532.75;30001;982;1875;-60
2022/09/22 01:56:29;;;;;;;;;;;;;;;5.87;81.56;97534.84;30001;982;1880;-59
2022/09/22 01:57:05;;;;;;;;;;;;;;;5.86;81.17;97531.34;30001;982;1884;-59
2022/09/22 01:57:39;;;;;;;;;;;;;;;5.86;80.86;97534.03;30001;982;1880;-60
2022/09/22 01:58:17;;;;;;;;;;;;;;;5.86;81.05;97534.03;30001;982;1885;-72
2022/09/22 01:58:51;;;;;;;;;;;;;;;5.85;80.51;97535.09;30001;982;1867;-58
2022/09/22 01:59:27;;;;;;;;;;;;;;;5.85;80.85;97537.78;30001;986;1867;-59
2022/09/22 02:00:02;;;;;;;;;;;;;;;5.85;80.74;97539.66;30001;983;1884;-60
2022/09/22 02:00:41;;;;;;;;;;;;;;;5.83;80.82;97539.91;30001;983;1879;-60
2022/09/22 02:01:14;;;;;;;;;;;;;;;5.81;80.96;97541.22;30001;983;1884;-60
2022/09/22 02:01:49;;;;;;;;;;;;;;;5.79;80.72;97538.78;30001;983;1880;-60
2022/09/22 02:02:25;;;;;;;;;;;;;;;5.77;80.87;97543.59;30001;983;1884;-59
2022/09/22 02:03:07;;;;;;;;;;;;;;;5.76;81.01;97541.16;30001;975;1898;-59
2022/09/22 02:04:04;;;;;;;;;;;;;;;5.75;80.77;97543.03;30001;982;1884;-60
2022/09/22 02:04:51;;;;;;;;;;;;;;;5.72;80.79;97540.81;30001;982;1862;-60
2022/09/22 02:05:33;;;;;;;;;;;;;;;5.70;80.99;97541.06;30001;982;1876;-60
2022/09/22 02:06:16;;;;;;;;;;;;;;;5.70;81.72;97534.84;30001;982;1880;-61
2022/09/22 02:06:53;;;;;;;;;;;;;;;5.69;81.54;97538.63;30001;983;1884;-59
2022/09/22 02:07:29;;;;;;;;;;;;;;;5.68;81.78;97534.28;30001;983;1880;-60
2022/09/22 02:08:05;;;;;;;;;;;;;;;5.68;81.60;97534.28;30001;983;1884;-58
2022/09/22 02:08:47;;;;;;;;;;;;;;;5.67;81.83;97533.47;30001;983;1880;-58
2022/09/22 02:09:20;;;;;;;;;;;;;;;5.64;81.91;97536.66;30001;983;1884;-61
2022/09/22 02:09:51;;;;;;;;;;;;;;;5.63;82.04;97534.19;30001;983;1841;-59
2022/09/22 02:10:30;;;;;;;;;;;;;;;5.62;81.78;97525.31;30001;983;1875;-60
2022/09/22 02:11:08;;;;;;;;;;;;;;;5.62;81.87;97529.88;30001;982;1880;-59
2022/09/22 02:11:39;;;;;;;;;;;;;;;5.60;82.12;97530.13;30001;982;1884;-59
2022/09/22 02:12:10;;;;;;;;;;;;;;;5.59;82.10;97533.06;30001;982;1867;-72
2022/09/22 02:12:41;;;;;;;;;;;;;;;5.59;82.06;97530.38;30001;982;1863;-60
2022/09/22 02:13:12;;;;;;;;;;;;;;;5.58;82.00;97534.94;30001;982;1867;-61
2022/09/22 02:13:45;;;;;;;;;;;;;;;5.57;82.09;97530.63;30001;982;1876;-61
2022/09/22 02:14:16;;;;;;;;;;;;;;;5.57;82.00;97535.19;30001;983;1866;-72
2022/09/22 02:14:48;;;;;;;;;;;;;;;5.56;81.95;97533.53;30001;983;1875;-60
2022/09/22 02:16:08;;;;;;;;;;;;;;;5.58;83.15;97531.44;30001;983;1884;-59
2022/09/22 02:16:40;;;;;;;;;;;;;;;5.56;83.54;97533.53;30001;983;1880;-60
2022/09/22 02:17:12;;;;;;;;;;;;;;;5.54;83.55;97531.13;30001;983;1884;-59
2022/09/22 02:17:47;;;;;;;;;;;;;;;5.54;83.55;97530.31;30001;983;1880;-59
2022/09/22 02:18:20;;;;;;;;;;;;;;;5.53;83.68;97531.37;30001;982;1884;-59
2022/09/22 02:19:10;;;;;;;;;;;;;;;5.52;83.86;97527.06;30001;982;1880;-61
2022/09/22 02:19:41;;;;;;;;;;;;;;;5.49;83.26;97522.16;30001;982;1872;-58
2022/09/22 02:20:12;;;;;;;;;;;;;;;5.49;83.42;97531.03;30001;982;1871;-61
2022/09/22 02:20:43;;;;;;;;;;;;;;;5.46;83.85;97522.63;30001;982;1885;-60
2022/09/22 02:21:15;;;;;;;;;;;;;;;5.47;83.52;97526.97;30001;982;1880;-72
2022/09/22 02:21:47;;;;;;;;;;;;;;;5.47;83.40;97524.28;30001;983;1884;-62
2022/09/22 02:22:17;;;;;;;;;;;;;;;5.46;83.59;97528.03;30001;983;1879;-60
2022/09/22 02:22:49;;;;;;;;;;;;;;;5.44;83.50;97522.06;30001;983;1884;-59
2022/09/22 02:23:20;;;;;;;;;;;;;;;5.43;83.50;97523.13;30001;983;1880;-59
2022/09/22 02:23:51;;;;;;;;;;;;;;;5.43;83.47;97523.13;30002;983;1884;-60
2022/09/22 02:24:47;;;;;;;;;;;;;;;5.43;83.54;97520.44;30002;983;1880;-73
2022/09/22 02:25:20;;;;;;;;;;;;;;;5.43;83.18;97517.75;30002;983;1867;-59
2022/09/22 02:25:50;;;;;;;;;;;;;;;5.43;83.46;97517.75;30002;982;1871;-60
2022/09/22 02:26:26;;;;;;;;;;;;;;;5.42;83.42;97522.31;30002;982;1884;-61
2022/09/22 02:27:01;;;;;;;;;;;;;;;5.44;83.19;97519.38;30002;982;1880;-59
2022/09/22 02:27:35;;;;;;;;;;;;;;;5.45;83.18;97521.00;30002;982;1885;-59
2022/09/22 02:28:06;;;;;;;;;;;;;;;5.45;83.07;97527.22;30002;982;1880;-60
2022/09/22 02:28:40;;;;;;;;;;;;;;;5.45;83.04;97523.69;30002;983;1884;-59
2022/09/22 02:29:11;;;;;;;;;;;;;;;5.43;83.19;97515.87;30002;963;1899;-60
2022/09/22 02:29:46;;;;;;;;;;;;;;;5.42;83.17;97522.31;30002;983;1884;-60
2022/09/22 02:30:17;;;;;;;;;;;;;;;5.43;83.25;97520.44;30002;983;1880;-59
2022/09/22 02:30:49;;;;;;;;;;;;;;;5.41;83.32;97525.25;30002;983;1871;-59
2022/09/22 02:31:23;;;;;;;;;;;;;;;5.42;83.18;97521.50;30002;983;1871;-59
2022/09/22 02:31:55;;;;;;;;;;;;;;;5.39;83.15;97518.22;30002;983;1884;-60
2022/09/22 02:32:28;;;;;;;;;;;;;;;5.38;83.04;97521.16;30002;983;1862;-73
2022/09/22 02:33:00;;;;;;;;;;;;;;;5.38;83.04;97521.16;30002;983;1871;-72
2022/09/22 02:33:34;;;;;;;;;;;;;;;5.38;83.34;97523.84;30002;982;1876;-72
2022/09/22 02:34:05;;;;;;;;;;;;;;;5.35;83.21;97511.69;30002;982;1880;-72
2022/09/22 02:34:36;;;;;;;;;;;;;;;5.34;83.52;97509.25;30002;982;1876;-60
2022/09/22 02:35:08;;;;;;;;;;;;;;;5.34;83.26;97520.84;30002;982;1880;-59
2022/09/22 02:35:40;;;;;;;;;;;;;;;5.31;83.76;97515.94;30002;982;1876;-61
2022/09/22 02:36:17;;;;;;;;;;;;;;;5.30;83.49;97514.31;30002;983;1866;-72
2022/09/22 02:37:26;;;;;;;;;;;;;;;5.31;83.59;97515.94;30002;983;1866;-58
2022/09/22 02:38:01;;;;;;;;;;;;;;;5.28;83.34;97510.22;30002;983;1875;-61
2022/09/22 02:38:40;;;;;;;;;;;;;;;5.29;83.50;97509.97;30002;983;1876;-59
2022/09/22 02:39:31;;;;;;;;;;;;;;;5.29;83.64;97518.06;30002;983;1880;-59
2022/09/22 02:40:17;;;;;;;;;;;;;;;5.30;83.92;97517.00;30002;983;1862;-60
2022/09/22 02:40:57;;;;;;;;;;;;;;;5.29;83.61;97512.66;30002;983;1871;-59
2022/09/22 02:41:54;;;;;;;;;;;;;;;5.31;83.28;97505.16;30002;982;1876;-59
2022/09/22 02:42:30;;;;;;;;;;;;;;;5.32;83.29;97501.41;30002;982;1876;-60
2022/09/22 02:43:16;;;;;;;;;;;;;;;5.31;83.59;97504.34;30002;982;1876;-59
2022/09/22 02:43:52;;;;;;;;;;;;;;;5.30;83.72;97511.63;30002;983;1866;-59
2022/09/22 02:44:43;;;;;;;;;;;;;;;5.30;83.81;97503.53;30002;983;1866;-60
2022/09/22 02:45:18;;;;;;;;;;;;;;;5.25;84.37;97510.72;30002;983;1866;-60
2022/09/22 02:45:52;;;;;;;;;;;;;;;5.18;84.92;97508.19;30002;983;1866;-59
2022/09/22 02:46:27;;;;;;;;;;;;;;;5.14;85.12;97508.94;30002;983;1880;-60
2022/09/22 02:47:01;;;;;;;;;;;;;;;5.13;84.96;97507.28;30002;983;1875;-60
2022/09/22 02:47:35;;;;;;;;;;;;;;;5.14;84.88;97503.53;30002;983;1867;-60
2022/09/22 02:48:27;;;;;;;;;;;;;;;5.14;85.54;97503.53;30002;983;1867;-59
2022/09/22 02:49:00;;;;;;;;;;;;;;;5.13;85.58;97512.66;30002;982;1880;-60
2022/09/22 02:49:32;;;;;;;;;;;;;;;5.12;85.28;97506.47;30002;982;1876;-59
2022/09/22 02:50:07;;;;;;;;;;;;;;;5.14;85.23;97509.75;30002;982;1880;-61
2022/09/22 02:50:58;;;;;;;;;;;;;;;5.16;85.23;97513.00;30002;982;1876;-59
2022/09/22 02:51:49;;;;;;;;;;;;;;;5.18;84.63;97510.88;30002;983;1875;-59
2022/09/22 02:52:22;;;;;;;;;;;;;;;5.20;85.00;97514.13;30002;983;1871;-72
2022/09/22 02:53:09;;;;;;;;;;;;;;;5.22;84.46;97520.06;30002;983;1866;-59
2022/09/22 02:53:40;;;;;;;;;;;;;;;5.24;84.74;97519.84;30002;983;1867;-61
2022/09/22 02:54:13;;;;;;;;;;;;;;;5.23;84.30;97519.03;30002;983;1880;-60
2022/09/22 02:54:44;;;;;;;;;;;;;;;5.25;84.49;97514.22;30002;987;1867;-60
2022/09/22 02:55:15;;;;;;;;;;;;;;;5.25;84.18;97511.53;30002;983;1880;-60
2022/09/22 02:55:47;;;;;;;;;;;;;;;5.27;84.43;97520.16;30002;983;1876;-59
2022/09/22 02:56:19;;;;;;;;;;;;;;;5.28;84.07;97513.72;30002;982;1880;-59
2022/09/22 02:56:50;;;;;;;;;;;;;;;5.29;84.21;97512.66;30002;982;1876;-59
2022/09/22 02:57:21;;;;;;;;;;;;;;;5.30;83.87;97510.78;30002;982;1880;-60
2022/09/22 02:57:53;;;;;;;;;;;;;;;5.31;84.31;97515.13;30002;982;1876;-74
2022/09/22 02:58:24;;;;;;;;;;;;;;;5.30;84.12;97519.69;30002;982;1758;-59
2022/09/22 02:58:55;;;;;;;;;;;;;;;5.31;84.09;97521.31;30002;983;1866;-72
2022/09/22 02:59:26;;;;;;;;;;;;;;;5.32;84.06;97506.81;30002;985;1879;-59
2022/09/22 02:59:57;;;;;;;;;;;;;;;5.34;84.16;97509.25;30002;987;1875;-61
2022/09/22 03:00:28;;;;;;;;;;;;;;;5.35;83.99;97510.88;30002;983;1880;-60
2022/09/22 03:01:01;;;;;;;;;;;;;;;5.34;84.31;97520.00;30002;983;1875;-60
2022/09/22 03:01:32;;;;;;;;;;;;;;;5.34;84.00;97510.06;30002;983;1880;-72
2022/09/22 03:02:03;;;;;;;;;;;;;;;5.35;83.85;97506.31;30002;983;1875;-60
2022/09/22 03:02:34;;;;;;;;;;;;;;;5.34;83.96;97507.38;30002;983;1880;-59
2022/09/22 03:03:05;;;;;;;;;;;;;;;5.35;84.10;97505.50;30002;982;1876;-60
2022/09/22 03:03:36;;;;;;;;;;;;;;;5.36;84.07;97507.13;30002;982;1867;-59
2022/09/22 03:04:08;;;;;;;;;;;;;;;5.33;84.52;97505.75;30002;982;1867;-73
2022/09/22 03:04:39;;;;;;;;;;;;;;;5.35;83.79;97510.88;30002;982;1880;-59
2022/09/22 03:05:10;;;;;;;;;;;;;;;5.35;84.39;97511.69;30002;982;1876;-61
2022/09/22 03:05:41;;;;;;;;;;;;;;;5.35;83.97;97511.69;30002;982;1880;-60
2022/09/22 03:06:12;;;;;;;;;;;;;;;5.37;84.23;97522.22;30002;964;1894;-60
2022/09/22 03:06:43;;;;;;;;;;;;;;;5.38;83.92;97515.78;30002;983;1879;-59
2022/09/22 03:07:13;;;;;;;;;;;;;;;5.39;83.63;97512.03;30002;983;1875;-73
2022/09/22 03:07:46;;;;;;;;;;;;;;;5.41;83.72;97509.91;30002;983;1879;-59
2022/09/22 03:08:17;;;;;;;;;;;;;;;5.43;83.61;97506.97;30002;983;1791;-59
2022/09/22 03:08:48;;;;;;;;;;;;;;;5.46;83.83;97509.19;30002;983;1867;-59
2022/09/22 03:09:18;;;;;;;;;;;;;;;5.46;83.80;97514.56;30002;983;1867;-72
2022/09/22 03:09:50;;;;;;;;;;;;;;;5.47;83.91;97508.94;30002;983;1880;-59
2022/09/22 03:10:21;;;;;;;;;;;;;;;5.48;83.58;97509.75;30002;982;1876;-60
2022/09/22 03:10:53;;;;;;;;;;;;;;;5.50;83.45;97505.75;30002;982;1880;-73
2022/09/22 03:11:26;;;;;;;;;;;;;;;5.51;83.76;97509.25;30002;982;1876;-60
2022/09/22 03:11:56;;;;;;;;;;;;;;;5.53;83.68;97507.16;30002;982;1880;-72
2022/09/22 03:12:27;;;;;;;;;;;;;;;5.55;83.51;97510.38;30002;982;1876;-59
2022/09/22 03:12:58;;;;;;;;;;;;;;;5.56;83.35;97509.31;30002;982;1880;-59
2022/09/22 03:13:29;;;;;;;;;;;;;;;5.57;83.45;97500.19;30002;982;1876;-59
2022/09/22 03:14:00;;;;;;;;;;;;;;;5.60;83.38;97513.16;30002;983;1866;-72
2022/09/22 03:14:31;;;;;;;;;;;;;;;5.61;83.23;97504.03;30002;983;1866;-60
2022/09/22 03:15:02;;;;;;;;;;;;;;;5.63;82.91;97507.28;30002;983;1879;-59